createdAt,value
2022-11-13T00:05:00.498Z,9.40
2022-11-13T00:10:05.515Z,9.40
2022-11-13T00:15:09.043Z,9.40
2022-11-13T00:20:12.352Z,9.30
2022-11-13T00:25:16.930Z,9.30
2022-11-13T00:30:20.202Z,9.30
2022-11-13T00:35:23.286Z,9.30
2022-11-13T00:40:28.316Z,9.30
2022-11-13T00:45:31.375Z,9.20
2022-11-13T00:50:34.476Z,9.10
2022-11-13T00:55:38.932Z,9.10
2022-11-13T01:00:42.967Z,9.00
2022-11-13T01:05:47.309Z,9.00
2022-11-13T01:10:53.758Z,9.00
2022-11-13T01:15:57.093Z,9.00
2022-11-13T01:21:04.947Z,9.00
2022-11-13T01:26:13.092Z,9.00
2022-11-13T01:31:17.834Z,9.00
2022-11-13T01:36:22.874Z,9.00
2022-11-13T01:41:29.616Z,8.90
2022-11-13T01:46:34.095Z,8.90
2022-11-13T01:51:39.610Z,8.80
2022-11-13T01:56:44.867Z,8.80
2022-11-13T02:01:48.200Z,8.80
2022-11-13T02:06:55.595Z,8.70
2022-11-13T02:12:00.330Z,8.70
2022-11-13T02:17:10.984Z,8.70
2022-11-13T02:22:21.269Z,8.70
2022-11-13T02:27:31.547Z,8.70
2022-11-13T02:32:34.621Z,8.70
2022-11-13T02:37:37.703Z,8.60
2022-11-13T02:42:42.168Z,8.70
2022-11-13T02:47:45.302Z,8.60
2022-11-13T02:52:48.843Z,8.60
2022-11-13T02:57:53.352Z,8.60
2022-11-13T03:02:56.966Z,8.60
2022-11-13T03:08:00.062Z,8.50
2022-11-13T03:13:04.547Z,8.40
2022-11-13T03:18:09.304Z,8.40
2022-11-13T03:23:12.433Z,8.30
2022-11-13T03:28:16.859Z,8.30
2022-11-13T03:33:19.927Z,8.30
2022-11-13T03:38:23.152Z,8.30
2022-11-13T03:43:27.651Z,8.20
2022-11-13T03:48:31.003Z,8.10
2022-11-13T03:53:34.576Z,8.00
2022-11-13T03:58:40.440Z,8.00
2022-11-13T04:03:46.710Z,7.90
2022-11-13T04:08:49.832Z,7.80
2022-11-13T04:13:54.293Z,7.70
2022-11-13T04:18:57.386Z,7.70
2022-11-13T04:24:00.484Z,7.60
2022-11-13T04:29:04.971Z,7.60
2022-11-13T04:34:09.335Z,7.50
2022-11-13T04:39:12.485Z,7.50
2022-11-13T04:44:17.184Z,7.50
2022-11-13T04:49:20.245Z,7.50
2022-11-13T04:54:28.499Z,7.50
2022-11-13T04:59:33.483Z,7.50
2022-11-13T05:04:36.552Z,7.50
2022-11-13T05:09:39.639Z,7.40
2022-11-13T05:14:44.163Z,7.40
2022-11-13T05:19:47.248Z,7.40
2022-11-13T05:24:50.319Z,7.40
2022-11-13T05:29:54.737Z,7.40
2022-11-13T05:34:57.808Z,7.30
2022-11-13T05:40:00.901Z,7.20
2022-11-13T05:45:05.915Z,7.20
2022-11-13T05:50:11.843Z,7.10
2022-11-13T05:55:15.049Z,7.10
2022-11-13T06:00:20.618Z,7.10
2022-11-13T06:05:23.699Z,7.00
2022-11-13T06:10:26.799Z,7.00
2022-11-13T06:15:31.263Z,7.00
2022-11-13T06:20:35.504Z,6.90
2022-11-13T06:25:38.593Z,6.90
2022-11-13T06:30:43.091Z,6.80
2022-11-13T06:35:46.160Z,6.80
2022-11-13T06:40:49.253Z,6.80
2022-11-13T06:45:53.829Z,6.80
2022-11-13T06:50:56.874Z,6.80
2022-11-13T06:56:01.341Z,6.80
2022-11-13T07:01:09.142Z,6.80
2022-11-13T07:06:15.059Z,6.90
2022-11-13T07:11:20.033Z,6.90
2022-11-13T07:16:24.639Z,6.90
2022-11-13T07:21:27.789Z,6.90
2022-11-13T07:26:30.866Z,6.90
2022-11-13T07:31:35.380Z,6.90
2022-11-13T07:36:38.473Z,6.90
2022-11-13T07:41:41.566Z,6.90
2022-11-13T07:46:46.173Z,6.90
2022-11-13T07:51:49.263Z,6.90
2022-11-13T07:56:52.341Z,7.00
2022-11-13T08:01:56.868Z,7.10
2022-11-13T08:07:00.013Z,7.20
2022-11-13T08:12:03.187Z,7.40
2022-11-13T08:17:07.672Z,7.50
2022-11-13T08:22:10.767Z,7.60
2022-11-13T08:27:13.940Z,7.60
2022-11-13T08:32:19.672Z,7.80
2022-11-13T08:37:22.803Z,7.80
2022-11-13T08:42:25.968Z,7.90
2022-11-13T08:47:30.491Z,8.00
2022-11-13T08:52:33.644Z,8.20
2022-11-13T08:57:36.725Z,8.40
2022-11-13T09:02:41.801Z,8.60
2022-11-13T09:07:44.892Z,8.80
2022-11-13T09:12:48.035Z,9.00
2022-11-13T09:17:52.729Z,9.20
2022-11-13T09:22:59.848Z,9.40
2022-11-13T09:28:04.061Z,9.60
2022-11-13T09:33:08.632Z,9.90
2022-11-13T09:38:14.976Z,10.10
2022-11-13T09:43:32.917Z,10.30
2022-11-13T09:48:39.843Z,10.60
2022-11-13T09:53:43.498Z,10.70
2022-11-13T09:58:53.091Z,10.90
2022-11-13T10:04:04.304Z,11.10
2022-11-13T10:09:19.941Z,11.30
2022-11-13T10:14:29.146Z,11.40
2022-11-13T10:19:38.768Z,11.60
2022-11-13T10:24:44.006Z,11.80
2022-11-13T10:29:49.111Z,12.00
2022-11-13T10:35:12.212Z,12.10
2022-11-13T10:40:25.787Z,12.30
2022-11-13T10:45:29.014Z,12.60
2022-11-13T10:50:34.406Z,12.80
2022-11-13T10:55:41.050Z,13.10
2022-11-13T11:00:47.469Z,13.30
2022-11-13T11:05:57.015Z,13.50
2022-11-13T11:11:19.914Z,13.60
2022-11-13T11:16:25.744Z,13.80
2022-11-13T11:21:36.448Z,14.00
2022-11-13T11:26:43.973Z,14.10
2022-11-13T11:31:52.131Z,14.10
2022-11-13T11:37:04.789Z,14.20
2022-11-13T11:42:20.760Z,14.30
2022-11-13T11:47:24.047Z,14.40
2022-11-13T11:52:51.291Z,14.50
2022-11-13T11:58:00.688Z,14.70
2022-11-13T12:03:27.920Z,14.80
2022-11-13T12:08:44.879Z,14.90
2022-11-13T12:13:57.512Z,15.00
2022-11-13T12:19:05.404Z,15.10
2022-11-13T12:24:42.849Z,15.20
2022-11-13T12:29:59.490Z,15.20
2022-11-13T12:35:08.610Z,15.30
2022-11-13T12:40:20.685Z,15.30
2022-11-13T12:45:32.043Z,15.30
2022-11-13T12:50:35.463Z,15.30
2022-11-13T12:55:41.541Z,15.30
2022-11-13T13:00:54.529Z,15.30
2022-11-13T13:06:18.668Z,15.30
2022-11-13T13:11:32.768Z,15.30
2022-11-13T13:16:35.919Z,15.40
2022-11-13T13:21:43.864Z,15.40
2022-11-13T13:26:48.679Z,15.40
2022-11-13T13:31:58.271Z,15.40
2022-11-13T13:37:11.957Z,15.40
2022-11-13T13:42:43.357Z,15.40
2022-11-13T13:47:48.623Z,15.50
2022-11-13T13:52:55.979Z,15.50
2022-11-13T13:58:05.558Z,15.60
2022-11-13T14:03:19.997Z,15.60
2022-11-13T14:08:25.291Z,15.60
2022-11-13T14:13:30.457Z,15.60
2022-11-13T14:18:34.564Z,15.60
2022-11-13T14:23:42.462Z,15.60
2022-11-13T14:28:54.052Z,15.60
2022-11-13T14:33:58.456Z,15.70
2022-11-13T14:39:01.971Z,15.60
2022-11-13T14:44:07.129Z,15.60
2022-11-13T14:49:15.237Z,15.60
2022-11-13T14:54:46.829Z,15.60
2022-11-13T14:59:55.302Z,15.60
2022-11-13T15:04:58.384Z,15.50
2022-11-13T15:10:02.227Z,15.50
2022-11-13T15:15:08.091Z,15.40
2022-11-13T15:20:16.221Z,15.40
2022-11-13T15:25:22.219Z,15.40
2022-11-13T15:30:26.792Z,15.30
2022-11-13T15:35:30.113Z,15.30
2022-11-13T15:40:34.634Z,15.20
2022-11-13T15:45:44.060Z,15.10
2022-11-13T15:50:47.869Z,15.00
2022-11-13T15:55:50.995Z,14.90
2022-11-13T16:00:55.572Z,14.90
2022-11-13T16:05:59.372Z,14.70
2022-11-13T16:11:02.572Z,14.60
2022-11-13T16:16:09.596Z,14.40
2022-11-13T16:21:14.337Z,14.30
2022-11-13T16:26:21.429Z,14.10
2022-11-13T16:31:25.983Z,14.00
2022-11-13T16:36:29.081Z,13.90
2022-11-13T16:41:33.280Z,13.70
2022-11-13T16:46:41.755Z,13.60
2022-11-13T16:51:45.832Z,13.40
2022-11-13T16:56:48.997Z,13.30
2022-11-13T17:01:56.871Z,13.20
2022-11-13T17:07:00.057Z,13.10
2022-11-13T17:12:03.260Z,13.00
2022-11-13T17:17:11.983Z,12.80
2022-11-13T17:22:17.824Z,12.70
2022-11-13T17:27:20.936Z,12.60
2022-11-13T17:32:25.506Z,12.60
2022-11-13T17:37:28.607Z,12.50
2022-11-13T17:42:31.818Z,12.40
2022-11-13T17:47:36.481Z,12.40
2022-11-13T17:52:39.652Z,12.30
2022-11-13T17:57:42.848Z,12.30
2022-11-13T18:02:47.779Z,12.20
2022-11-13T18:07:50.954Z,12.10
2022-11-13T18:12:54.077Z,12.10
2022-11-13T18:17:58.574Z,12.10
2022-11-13T18:23:02.364Z,12.10
2022-11-13T18:28:05.781Z,12.00
2022-11-13T18:33:10.300Z,12.00
2022-11-13T18:38:13.360Z,11.90
2022-11-13T18:43:16.646Z,11.80
2022-11-13T18:48:21.201Z,11.80
2022-11-13T18:53:24.363Z,11.70
2022-11-13T18:58:27.846Z,11.70
2022-11-13T19:03:32.462Z,11.60
2022-11-13T19:08:40.368Z,11.50
2022-11-13T19:13:46.911Z,11.40
2022-11-13T19:18:54.671Z,11.40
2022-11-13T19:23:58.495Z,11.30
2022-11-13T19:29:01.846Z,11.20
2022-11-13T19:34:08.776Z,11.00
2022-11-13T19:39:15.668Z,11.00
2022-11-13T19:44:18.783Z,10.90
2022-11-13T19:49:23.241Z,10.80
2022-11-13T19:54:26.415Z,10.70
2022-11-13T19:59:32.163Z,10.60
2022-11-13T20:04:36.639Z,10.60
2022-11-13T20:09:39.760Z,10.50
2022-11-13T20:14:42.961Z,10.40
2022-11-13T20:19:47.429Z,10.40
2022-11-13T20:24:50.558Z,10.30
2022-11-13T20:29:54.729Z,10.30
2022-11-13T20:34:59.275Z,10.20
2022-11-13T20:40:02.564Z,10.20
2022-11-13T20:45:06.393Z,10.10
2022-11-13T20:50:11.785Z,10.10
2022-11-13T20:55:14.961Z,10.00
2022-11-13T21:00:18.677Z,9.90
2022-11-13T21:05:23.130Z,9.90
2022-11-13T21:10:26.367Z,9.80
2022-11-13T21:15:29.452Z,9.70
2022-11-13T21:20:34.398Z,9.60
2022-11-13T21:25:37.467Z,9.50
2022-11-13T21:30:40.578Z,9.40
2022-11-13T21:35:45.200Z,9.30
2022-11-13T21:41:08.311Z,9.20
2022-11-13T21:46:12.512Z,9.10
2022-11-13T21:51:17.260Z,9.10
2022-11-13T21:56:20.545Z,9.00
2022-11-13T22:01:24.624Z,8.90
2022-11-13T22:06:30.579Z,8.90
2022-11-13T22:11:35.354Z,8.80
2022-11-13T22:16:41.157Z,8.80
2022-11-13T22:21:46.240Z,8.80
2022-11-13T22:26:49.370Z,8.70
2022-11-13T22:31:52.436Z,8.70
2022-11-13T22:36:56.931Z,8.70
2022-11-13T22:41:59.983Z,8.60
2022-11-13T22:47:03.050Z,8.60
2022-11-13T22:52:07.563Z,8.50
2022-11-13T22:57:10.630Z,8.40
2022-11-13T23:02:13.989Z,8.40
2022-11-13T23:07:18.653Z,8.40
2022-11-13T23:12:22.503Z,8.30
2022-11-13T23:17:25.563Z,8.10
2022-11-13T23:22:30.160Z,7.90
2022-11-13T23:27:34.015Z,7.70
2022-11-13T23:32:37.067Z,7.60
2022-11-13T23:37:41.533Z,7.50
2022-11-13T23:42:55.148Z,7.50
2022-11-13T23:47:58.992Z,7.50
2022-11-13T23:53:03.440Z,7.50
2022-11-13T23:58:11.265Z,7.60
